PTI1055 FTTJ-DRRN
Flight info
| Callsign | PTI1055 |
|---|---|
| Flight time | 3h 10m |
| Altitude | 18000 |
| Route | FL G660 KELAK Q324 GULEN MOVAG1L |
| Aircraft | C414/L-SBDFGRY/S |
Departure
| Time | 2026-04-22 16:52 |
|---|---|
| Airport | N'Djamena International Airport (FTTJ) |
Arrival
| Time | 2026-04-22 20:02 |
|---|---|
| Airport | Diori Hamani International Airport (DRRN) |
| Time | Latitude | Longitude | Altitude | Speed | Heading |
|---|---|---|---|---|---|
| 2026-04-22 16:51 | 12.10749 | 14.77816 | 6507 ft | 138 kts | 262° |
| 2026-04-22 16:52 | 12.10622 | 14.76850 | 6752 ft | 137 kts | 262° |
| 2026-04-22 16:52 | 12.10496 | 14.75891 | 6998 ft | 136 kts | 262° |
| 2026-04-22 16:52 | 12.10412 | 14.75259 | 7161 ft | 135 kts | 262° |
| 2026-04-22 16:52 | 12.10287 | 14.74312 | 7404 ft | 134 kts | 262° |
| 2026-04-22 16:53 | 12.10161 | 14.73357 | 7603 ft | 137 kts | 263° |
| 2026-04-22 16:53 | 12.10033 | 14.72383 | 7807 ft | 139 kts | 262° |
| 2026-04-22 16:53 | 12.09903 | 14.71396 | 8011 ft | 141 kts | 262° |
| 2026-04-22 16:53 | 12.09771 | 14.70396 | 8215 ft | 143 kts | 262° |
| 2026-04-22 16:54 | 12.09637 | 14.69389 | 8419 ft | 144 kts | 262° |
| 2026-04-22 16:54 | 12.09504 | 14.68375 | 8622 ft | 145 kts | 262° |
| 2026-04-22 16:54 | 12.09369 | 14.67353 | 8825 ft | 146 kts | 262° |
| 2026-04-22 16:54 | 12.09232 | 14.66317 | 9029 ft | 149 kts | 262° |
| 2026-04-22 16:55 | 12.09092 | 14.65252 | 9238 ft | 154 kts | 262° |
| 2026-04-22 16:55 | 12.08946 | 14.64153 | 9447 ft | 158 kts | 262° |
| 2026-04-22 16:55 | 12.08868 | 14.62990 | 9505 ft | 171 kts | 278° |
| 2026-04-22 16:55 | 12.09166 | 14.61422 | 9508 ft | 186 kts | 280° |
| 2026-04-22 16:56 | 12.09400 | 14.60092 | 9510 ft | 194 kts | 280° |
| 2026-04-22 16:56 | 12.09734 | 14.58192 | 9512 ft | 200 kts | 280° |
| 2026-04-22 16:56 | 12.10238 | 14.55352 | 9509 ft | 205 kts | 280° |
| 2026-04-22 16:56 | 12.10745 | 14.52487 | 9511 ft | 207 kts | 280° |
| 2026-04-22 16:57 | 12.11261 | 14.49566 | 9510 ft | 208 kts | 280° |
| 2026-04-22 16:57 | 12.11774 | 14.46659 | 9508 ft | 208 kts | 280° |
| 2026-04-22 16:57 | 12.12291 | 14.43740 | 9508 ft | 209 kts | 280° |
| 2026-04-22 16:57 | 12.12801 | 14.40841 | 9562 ft | 207 kts | 280° |
| 2026-04-22 16:58 | 12.13134 | 14.38945 | 9761 ft | 198 kts | 280° |
| 2026-04-22 16:58 | 12.13751 | 14.35384 | 10341 ft | 184 kts | 280° |
| 2026-04-22 16:58 | 12.14182 | 14.32841 | 10776 ft | 179 kts | 279° |
| 2026-04-22 16:58 | 12.14590 | 14.30352 | 11218 ft | 176 kts | 279° |
| 2026-04-22 16:59 | 12.14974 | 14.27936 | 11653 ft | 174 kts | 279° |
| 2026-04-22 16:59 | 12.15349 | 14.25478 | 11997 ft | 180 kts | 278° |
| 2026-04-22 16:59 | 12.15744 | 14.22818 | 12012 ft | 197 kts | 278° |
| 2026-04-22 16:59 | 12.16182 | 14.19848 | 11817 ft | 209 kts | 278° |
| 2026-04-22 17:00 | 12.16603 | 14.16981 | 11995 ft | 206 kts | 278° |
| 2026-04-22 17:00 | 12.17460 | 14.11090 | 12002 ft | 212 kts | 278° |
| 2026-04-22 17:00 | 12.17893 | 14.08105 | 12004 ft | 213 kts | 278° |
| 2026-04-22 17:01 | 12.18327 | 14.05106 | 12006 ft | 213 kts | 278° |
| 2026-04-22 17:01 | 12.19040 | 14.00174 | 12006 ft | 213 kts | 278° |
| 2026-04-22 17:01 | 12.19908 | 13.94161 | 12006 ft | 214 kts | 278° |
| 2026-04-22 17:01 | 12.20774 | 13.88139 | 12006 ft | 214 kts | 278° |
| 2026-04-22 17:02 | 12.21637 | 13.82126 | 12006 ft | 214 kts | 278° |
| 2026-04-22 17:02 | 12.23256 | 13.70817 | 12007 ft | 214 kts | 278° |
| 2026-04-22 17:02 | 12.26693 | 13.46758 | 12007 ft | 214 kts | 278° |
| 2026-04-22 17:02 | 12.28977 | 13.30738 | 11997 ft | 214 kts | 278° |
| 2026-04-22 17:03 | 12.33516 | 12.98862 | 12001 ft | 214 kts | 278° |
| 2026-04-22 17:03 | 12.35871 | 12.82302 | 12002 ft | 214 kts | 278° |
| 2026-04-22 17:03 | 12.39251 | 12.58513 | 12000 ft | 214 kts | 278° |
| 2026-04-22 17:03 | 12.42721 | 12.34066 | 12004 ft | 214 kts | 278° |
| 2026-04-22 17:04 | 12.46087 | 12.10328 | 12000 ft | 214 kts | 278° |
| 2026-04-22 17:04 | 12.49503 | 11.86238 | 12002 ft | 214 kts | 278° |
| 2026-04-22 17:04 | 12.50472 | 11.79400 | 12003 ft | 214 kts | 278° |
| 2026-04-22 17:04 | 12.50686 | 11.77891 | 12002 ft | 214 kts | 278° |
| 2026-04-22 17:05 | 12.50901 | 11.76381 | 12002 ft | 214 kts | 278° |
| 2026-04-22 17:05 | 12.51115 | 11.74870 | 12002 ft | 214 kts | 278° |
| 2026-04-22 17:05 | 12.51330 | 11.73361 | 12002 ft | 214 kts | 278° |
| 2026-04-22 17:05 | 12.51544 | 11.71855 | 12002 ft | 214 kts | 278° |
| 2026-04-22 17:06 | 12.51758 | 11.70345 | 12002 ft | 214 kts | 278° |
| 2026-04-22 17:06 | 12.51972 | 11.68840 | 12002 ft | 214 kts | 278° |
| 2026-04-22 17:06 | 12.52187 | 11.67333 | 12001 ft | 214 kts | 278° |
| 2026-04-22 17:06 | 12.52400 | 11.65834 | 12002 ft | 214 kts | 278° |
| 2026-04-22 17:07 | 12.52614 | 11.64324 | 12001 ft | 214 kts | 278° |
| 2026-04-22 17:07 | 12.52829 | 11.62817 | 12002 ft | 214 kts | 278° |
| 2026-04-22 17:07 | 12.53044 | 11.61308 | 12003 ft | 214 kts | 278° |
| 2026-04-22 17:07 | 12.53260 | 11.59797 | 12003 ft | 214 kts | 278° |
| 2026-04-22 17:08 | 12.53475 | 11.58285 | 12002 ft | 215 kts | 278° |
| 2026-04-22 17:08 | 12.53691 | 11.56775 | 12003 ft | 214 kts | 278° |
| 2026-04-22 17:08 | 12.53907 | 11.55266 | 12003 ft | 214 kts | 278° |
| 2026-04-22 17:08 | 12.54123 | 11.53756 | 12002 ft | 214 kts | 278° |
| 2026-04-22 17:09 | 12.54339 | 11.52252 | 12002 ft | 214 kts | 278° |
| 2026-04-22 17:09 | 12.54554 | 11.50745 | 12002 ft | 214 kts | 278° |
| 2026-04-22 17:09 | 12.54770 | 11.49241 | 12002 ft | 214 kts | 278° |
| 2026-04-22 17:09 | 12.54986 | 11.47733 | 12002 ft | 214 kts | 278° |
| 2026-04-22 17:10 | 12.55199 | 11.46249 | 12002 ft | 214 kts | 278° |
| 2026-04-22 17:10 | 12.55418 | 11.44726 | 12002 ft | 214 kts | 278° |
| 2026-04-22 17:10 | 12.55631 | 11.43239 | 12002 ft | 214 kts | 278° |
| 2026-04-22 17:10 | 12.55847 | 11.41737 | 12002 ft | 214 kts | 278° |
| 2026-04-22 17:11 | 12.56064 | 11.40224 | 12002 ft | 214 kts | 278° |
| 2026-04-22 17:11 | 12.56281 | 11.38719 | 12002 ft | 214 kts | 278° |
| 2026-04-22 17:11 | 12.56498 | 11.37214 | 12002 ft | 214 kts | 278° |
| 2026-04-22 17:11 | 12.56715 | 11.35705 | 12002 ft | 214 kts | 278° |
| 2026-04-22 17:12 | 12.56933 | 11.34198 | 12002 ft | 214 kts | 278° |
| 2026-04-22 17:12 | 12.57151 | 11.32689 | 12002 ft | 214 kts | 278° |
| 2026-04-22 17:12 | 12.57369 | 11.31183 | 12003 ft | 214 kts | 278° |
| 2026-04-22 17:12 | 12.57587 | 11.29677 | 12002 ft | 214 kts | 278° |
| 2026-04-22 17:13 | 12.57806 | 11.28168 | 12002 ft | 214 kts | 278° |
| 2026-04-22 17:13 | 12.58023 | 11.26668 | 12002 ft | 214 kts | 278° |
| 2026-04-22 17:13 | 12.58242 | 11.25152 | 12003 ft | 214 kts | 278° |
| 2026-04-22 17:13 | 12.58461 | 11.23644 | 12002 ft | 214 kts | 278° |
| 2026-04-22 17:14 | 12.58679 | 11.22137 | 12003 ft | 214 kts | 278° |
| 2026-04-22 17:14 | 12.58898 | 11.20629 | 12003 ft | 214 kts | 278° |
| 2026-04-22 17:14 | 12.59114 | 11.19141 | 12002 ft | 214 kts | 278° |
| 2026-04-22 17:14 | 12.59334 | 11.17634 | 12002 ft | 214 kts | 278° |
| 2026-04-22 17:15 | 12.59482 | 11.16616 | 12003 ft | 214 kts | 278° |
| 2026-04-22 17:15 | 12.59774 | 11.14619 | 12003 ft | 214 kts | 278° |
| 2026-04-22 17:15 | 12.59993 | 11.13114 | 12003 ft | 214 kts | 278° |
| 2026-04-22 17:15 | 12.60213 | 11.11603 | 12003 ft | 214 kts | 278° |
| 2026-04-22 17:16 | 12.60433 | 11.10098 | 12003 ft | 214 kts | 278° |
| 2026-04-22 17:16 | 12.60653 | 11.08591 | 12003 ft | 214 kts | 278° |
| 2026-04-22 17:16 | 12.60873 | 11.07084 | 12003 ft | 214 kts | 278° |
| 2026-04-22 17:16 | 12.61095 | 11.05574 | 12003 ft | 214 kts | 278° |
| 2026-04-22 17:17 | 12.61317 | 11.04064 | 12003 ft | 214 kts | 278° |
| 2026-04-22 17:17 | 12.61537 | 11.02563 | 12003 ft | 214 kts | 278° |
| 2026-04-22 17:17 | 12.61757 | 11.01058 | 12003 ft | 214 kts | 278° |
| 2026-04-22 17:17 | 12.61979 | 10.99546 | 12003 ft | 214 kts | 278° |
| 2026-04-22 17:18 | 12.62200 | 10.98039 | 12003 ft | 214 kts | 278° |
| 2026-04-22 17:18 | 12.62421 | 10.96528 | 12003 ft | 214 kts | 278° |
| 2026-04-22 17:18 | 12.62643 | 10.95022 | 12003 ft | 214 kts | 278° |
| 2026-04-22 17:18 | 12.62866 | 10.93513 | 12003 ft | 214 kts | 278° |
| 2026-04-22 17:19 | 12.63311 | 10.90497 | 12003 ft | 214 kts | 278° |
| 2026-04-22 17:19 | 12.63756 | 10.87481 | 12003 ft | 214 kts | 278° |
| 2026-04-22 17:20 | 12.64202 | 10.84463 | 12003 ft | 214 kts | 278° |
| 2026-04-22 17:20 | 12.64648 | 10.81451 | 12003 ft | 214 kts | 278° |
| 2026-04-22 17:21 | 12.64871 | 10.79943 | 12004 ft | 214 kts | 278° |
| 2026-04-22 17:21 | 12.65318 | 10.76929 | 12003 ft | 214 kts | 278° |
| 2026-04-22 17:22 | 12.65767 | 10.73913 | 12004 ft | 214 kts | 278° |
| 2026-04-22 17:22 | 12.65992 | 10.72405 | 12004 ft | 214 kts | 278° |
| 2026-04-22 17:22 | 12.66438 | 10.69410 | 12004 ft | 214 kts | 278° |
| 2026-04-22 17:23 | 12.66662 | 10.67901 | 12003 ft | 214 kts | 278° |
| 2026-04-22 17:23 | 12.67113 | 10.64888 | 12004 ft | 214 kts | 279° |
| 2026-04-22 17:23 | 12.67338 | 10.63383 | 12004 ft | 214 kts | 278° |
| 2026-04-22 17:24 | 12.67564 | 10.61875 | 12004 ft | 214 kts | 279° |
| 2026-04-22 17:24 | 12.67790 | 10.60370 | 12004 ft | 214 kts | 279° |
| 2026-04-22 17:24 | 12.68017 | 10.58861 | 12004 ft | 214 kts | 279° |
| 2026-04-22 17:24 | 12.68244 | 10.57352 | 12004 ft | 214 kts | 279° |
| 2026-04-22 17:25 | 12.68471 | 10.55845 | 12004 ft | 214 kts | 279° |
| 2026-04-22 17:25 | 12.68698 | 10.54336 | 12004 ft | 214 kts | 279° |
| 2026-04-22 17:25 | 12.68926 | 10.52826 | 12004 ft | 214 kts | 279° |
| 2026-04-22 17:25 | 12.69154 | 10.51319 | 12005 ft | 215 kts | 279° |
| 2026-04-22 17:26 | 12.69382 | 10.49809 | 12004 ft | 214 kts | 279° |
| 2026-04-22 17:26 | 12.69610 | 10.48300 | 12004 ft | 214 kts | 279° |
| 2026-04-22 17:26 | 12.69837 | 10.46796 | 12005 ft | 214 kts | 279° |
| 2026-04-22 17:26 | 12.70066 | 10.45284 | 12004 ft | 214 kts | 279° |
| 2026-04-22 17:27 | 12.70294 | 10.43782 | 12003 ft | 214 kts | 279° |
| 2026-04-22 17:27 | 12.70523 | 10.42277 | 12004 ft | 214 kts | 279° |
| 2026-04-22 17:27 | 12.70753 | 10.40763 | 12004 ft | 214 kts | 279° |
| 2026-04-22 17:27 | 12.70982 | 10.39256 | 12005 ft | 214 kts | 279° |
| 2026-04-22 17:28 | 12.71210 | 10.37768 | 12005 ft | 215 kts | 279° |
| 2026-04-22 17:28 | 12.71444 | 10.36236 | 12005 ft | 215 kts | 279° |
| 2026-04-22 17:28 | 12.71675 | 10.34726 | 12005 ft | 215 kts | 279° |
| 2026-04-22 17:28 | 12.71902 | 10.33236 | 12005 ft | 215 kts | 279° |
| 2026-04-22 17:29 | 12.72138 | 10.31706 | 12005 ft | 214 kts | 279° |
| 2026-04-22 17:29 | 12.72369 | 10.30199 | 12005 ft | 214 kts | 279° |
| 2026-04-22 17:29 | 12.72598 | 10.28710 | 12004 ft | 214 kts | 279° |
| 2026-04-22 17:29 | 12.72829 | 10.27210 | 12003 ft | 212 kts | 279° |
| 2026-04-22 17:30 | 12.73056 | 10.25735 | 12001 ft | 209 kts | 279° |
| 2026-04-22 17:30 | 12.73281 | 10.24269 | 11999 ft | 207 kts | 279° |
| 2026-04-22 17:30 | 12.73504 | 10.22813 | 11995 ft | 206 kts | 279° |
| 2026-04-22 17:30 | 12.73725 | 10.21366 | 11986 ft | 205 kts | 279° |
| 2026-04-22 17:31 | 12.73865 | 10.19915 | 11991 ft | 205 kts | 270° |
| 2026-04-22 17:31 | 12.73759 | 10.18464 | 11992 ft | 204 kts | 263° |
| 2026-04-22 17:31 | 12.73587 | 10.17021 | 11992 ft | 204 kts | 263° |
| 2026-04-22 17:31 | 12.73414 | 10.15582 | 11993 ft | 204 kts | 263° |
| 2026-04-22 17:32 | 12.73240 | 10.14142 | 11992 ft | 204 kts | 263° |
| 2026-04-22 17:32 | 12.73067 | 10.12704 | 11992 ft | 204 kts | 263° |
| 2026-04-22 17:32 | 12.72894 | 10.11265 | 11992 ft | 204 kts | 263° |
| 2026-04-22 17:32 | 12.72719 | 10.09828 | 11992 ft | 204 kts | 263° |
| 2026-04-22 17:33 | 12.72603 | 10.08874 | 11993 ft | 203 kts | 263° |
| 2026-04-22 17:33 | 12.72368 | 10.06952 | 11988 ft | 203 kts | 263° |
| 2026-04-22 17:33 | 12.72191 | 10.05515 | 11993 ft | 203 kts | 263° |
| 2026-04-22 17:33 | 12.72014 | 10.04074 | 11993 ft | 204 kts | 263° |
| 2026-04-22 17:34 | 12.71837 | 10.02638 | 11990 ft | 204 kts | 263° |
| 2026-04-22 17:34 | 12.71659 | 10.01198 | 11993 ft | 204 kts | 263° |
| 2026-04-22 17:34 | 12.71480 | 9.99760 | 11993 ft | 204 kts | 263° |
| 2026-04-22 17:34 | 12.71300 | 9.98317 | 11993 ft | 204 kts | 263° |
| 2026-04-22 17:35 | 12.71123 | 9.96902 | 11994 ft | 204 kts | 263° |
| 2026-04-22 17:35 | 12.70940 | 9.95439 | 11993 ft | 204 kts | 263° |
| 2026-04-22 17:35 | 12.70759 | 9.93999 | 11993 ft | 204 kts | 263° |
| 2026-04-22 17:35 | 12.70577 | 9.92561 | 11993 ft | 204 kts | 263° |
| 2026-04-22 17:36 | 12.70395 | 9.91123 | 11988 ft | 204 kts | 263° |
| 2026-04-22 17:36 | 12.70212 | 9.89685 | 11993 ft | 204 kts | 263° |
| 2026-04-22 17:36 | 12.70031 | 9.88264 | 11994 ft | 204 kts | 263° |
| 2026-04-22 17:36 | 12.69848 | 9.86828 | 11989 ft | 204 kts | 263° |
| 2026-04-22 17:37 | 12.69663 | 9.85386 | 11985 ft | 204 kts | 263° |
| 2026-04-22 17:37 | 12.69477 | 9.83948 | 11994 ft | 204 kts | 263° |
| 2026-04-22 17:37 | 12.69291 | 9.82510 | 11994 ft | 204 kts | 263° |
| 2026-04-22 17:37 | 12.69104 | 9.81069 | 11993 ft | 204 kts | 263° |
| 2026-04-22 17:38 | 12.68917 | 9.79632 | 11994 ft | 204 kts | 263° |
| 2026-04-22 17:38 | 12.68730 | 9.78192 | 11994 ft | 204 kts | 263° |
| 2026-04-22 17:38 | 12.68542 | 9.76758 | 11994 ft | 204 kts | 262° |
| 2026-04-22 17:38 | 12.68353 | 9.75320 | 11994 ft | 204 kts | 262° |
| 2026-04-22 17:39 | 12.68164 | 9.73880 | 11990 ft | 204 kts | 262° |
| 2026-04-22 17:39 | 12.67975 | 9.72444 | 11994 ft | 204 kts | 262° |
| 2026-04-22 17:39 | 12.67580 | 9.69572 | 11992 ft | 204 kts | 258° |
| 2026-04-22 17:40 | 12.67197 | 9.68181 | 11997 ft | 203 kts | 255° |
| 2026-04-22 17:40 | 12.66974 | 9.66755 | 11997 ft | 203 kts | 269° |
| 2026-04-22 17:40 | 12.67061 | 9.65314 | 11999 ft | 203 kts | 276° |
| 2026-04-22 17:40 | 12.67223 | 9.63881 | 12001 ft | 203 kts | 276° |
| 2026-04-22 17:41 | 12.67363 | 9.62439 | 12001 ft | 203 kts | 275° |
| 2026-04-22 17:41 | 12.67490 | 9.60995 | 12002 ft | 203 kts | 275° |
| 2026-04-22 17:41 | 12.67618 | 9.59552 | 12002 ft | 204 kts | 275° |
| 2026-04-22 17:41 | 12.67747 | 9.58110 | 12002 ft | 204 kts | 275° |
| 2026-04-22 17:42 | 12.67876 | 9.56661 | 12002 ft | 204 kts | 275° |
| 2026-04-22 17:42 | 12.68004 | 9.55233 | 12002 ft | 204 kts | 275° |
| 2026-04-22 17:42 | 12.68091 | 9.54257 | 12002 ft | 204 kts | 275° |
| 2026-04-22 17:42 | 12.68264 | 9.52346 | 12002 ft | 204 kts | 275° |
| 2026-04-22 17:43 | 12.68398 | 9.50884 | 12003 ft | 204 kts | 275° |
| 2026-04-22 17:43 | 12.68529 | 9.49440 | 12002 ft | 204 kts | 275° |
| 2026-04-22 17:43 | 12.68659 | 9.48016 | 12003 ft | 204 kts | 275° |
| 2026-04-22 17:43 | 12.68791 | 9.46571 | 12002 ft | 204 kts | 275° |
| 2026-04-22 17:44 | 12.68922 | 9.45125 | 12003 ft | 204 kts | 275° |
| 2026-04-22 17:44 | 12.69054 | 9.43680 | 12003 ft | 204 kts | 275° |
| 2026-04-22 17:44 | 12.69186 | 9.42235 | 12003 ft | 204 kts | 275° |
| 2026-04-22 17:44 | 12.69316 | 9.40793 | 12002 ft | 204 kts | 275° |
| 2026-04-22 17:45 | 12.69448 | 9.39347 | 12002 ft | 204 kts | 275° |
| 2026-04-22 17:45 | 12.69578 | 9.37903 | 12002 ft | 204 kts | 275° |
| 2026-04-22 17:45 | 12.69710 | 9.36460 | 12001 ft | 204 kts | 275° |
| 2026-04-22 17:45 | 12.69840 | 9.35014 | 12002 ft | 204 kts | 275° |
| 2026-04-22 17:46 | 12.69971 | 9.33568 | 12002 ft | 204 kts | 275° |
| 2026-04-22 17:46 | 12.70102 | 9.32124 | 12002 ft | 204 kts | 275° |
| 2026-04-22 17:46 | 12.70232 | 9.30681 | 12001 ft | 204 kts | 275° |
| 2026-04-22 17:46 | 12.70363 | 9.29236 | 12000 ft | 204 kts | 275° |
| 2026-04-22 17:47 | 12.70494 | 9.27790 | 12000 ft | 204 kts | 275° |
| 2026-04-22 17:47 | 12.70624 | 9.26346 | 12000 ft | 204 kts | 275° |
| 2026-04-22 17:47 | 12.70755 | 9.24900 | 12000 ft | 204 kts | 275° |
| 2026-04-22 17:47 | 12.70885 | 9.23454 | 12000 ft | 204 kts | 275° |
| 2026-04-22 17:48 | 12.70973 | 9.22478 | 12000 ft | 204 kts | 275° |
| 2026-04-22 17:48 | 12.71146 | 9.20566 | 12000 ft | 204 kts | 275° |
| 2026-04-22 17:48 | 12.71276 | 9.19121 | 12000 ft | 204 kts | 275° |
| 2026-04-22 17:48 | 12.71362 | 9.18172 | 12000 ft | 204 kts | 275° |
| 2026-04-22 17:49 | 12.71494 | 9.16699 | 12000 ft | 204 kts | 275° |
| 2026-04-22 17:49 | 12.71623 | 9.15272 | 12000 ft | 204 kts | 275° |
| 2026-04-22 17:49 | 12.71753 | 9.13827 | 12001 ft | 204 kts | 275° |
| 2026-04-22 17:49 | 12.71883 | 9.12383 | 12000 ft | 204 kts | 275° |
| 2026-04-22 17:50 | 12.72012 | 9.10938 | 12000 ft | 204 kts | 275° |
| 2026-04-22 17:50 | 12.72143 | 9.09492 | 12000 ft | 204 kts | 275° |
| 2026-04-22 17:50 | 12.72272 | 9.08049 | 12000 ft | 204 kts | 275° |
| 2026-04-22 17:50 | 12.72402 | 9.06603 | 12000 ft | 204 kts | 275° |
| 2026-04-22 17:51 | 12.72531 | 9.05161 | 12000 ft | 204 kts | 275° |
| 2026-04-22 17:51 | 12.72661 | 9.03716 | 11999 ft | 204 kts | 275° |
| 2026-04-22 17:51 | 12.72790 | 9.02270 | 12000 ft | 204 kts | 275° |
| 2026-04-22 17:51 | 12.72919 | 9.00828 | 11999 ft | 204 kts | 275° |
| 2026-04-22 17:52 | 12.73049 | 8.99383 | 12000 ft | 204 kts | 275° |
| 2026-04-22 17:52 | 12.73178 | 8.97938 | 11999 ft | 204 kts | 275° |
| 2026-04-22 17:52 | 12.73307 | 8.96493 | 12000 ft | 204 kts | 275° |
| 2026-04-22 17:52 | 12.73436 | 8.95048 | 12000 ft | 204 kts | 275° |
| 2026-04-22 17:53 | 12.73565 | 8.93603 | 11999 ft | 204 kts | 275° |
| 2026-04-22 17:53 | 12.73693 | 8.92161 | 12000 ft | 204 kts | 275° |
| 2026-04-22 17:53 | 12.73822 | 8.90715 | 11999 ft | 204 kts | 275° |
| 2026-04-22 17:53 | 12.73951 | 8.89268 | 11999 ft | 204 kts | 275° |
| 2026-04-22 17:54 | 12.74079 | 8.87833 | 12000 ft | 204 kts | 275° |
| 2026-04-22 17:54 | 12.74208 | 8.86380 | 12000 ft | 204 kts | 275° |
| 2026-04-22 17:54 | 12.74337 | 8.84931 | 12000 ft | 204 kts | 275° |
| 2026-04-22 17:54 | 12.74465 | 8.83490 | 11999 ft | 204 kts | 275° |
| 2026-04-22 17:55 | 12.74594 | 8.82040 | 12000 ft | 204 kts | 275° |
| 2026-04-22 17:55 | 12.74722 | 8.80595 | 12000 ft | 204 kts | 275° |
| 2026-04-22 17:55 | 12.74850 | 8.79147 | 12000 ft | 204 kts | 275° |
| 2026-04-22 17:55 | 12.74978 | 8.77702 | 12000 ft | 204 kts | 275° |
| 2026-04-22 17:56 | 12.75106 | 8.76254 | 12000 ft | 204 kts | 275° |
| 2026-04-22 17:56 | 12.75235 | 8.74807 | 12000 ft | 204 kts | 275° |
| 2026-04-22 17:56 | 12.75365 | 8.73361 | 12000 ft | 204 kts | 275° |
| 2026-04-22 17:56 | 12.75495 | 8.71916 | 12001 ft | 204 kts | 275° |
| 2026-04-22 17:57 | 12.75625 | 8.70471 | 12000 ft | 204 kts | 275° |
| 2026-04-22 17:57 | 12.75751 | 8.69051 | 12000 ft | 204 kts | 275° |
| 2026-04-22 17:57 | 12.75881 | 8.67605 | 12000 ft | 204 kts | 275° |
| 2026-04-22 17:57 | 12.76011 | 8.66154 | 12000 ft | 204 kts | 275° |
| 2026-04-22 17:58 | 12.76139 | 8.64715 | 12000 ft | 204 kts | 275° |
| 2026-04-22 17:58 | 12.76269 | 8.63260 | 12000 ft | 204 kts | 275° |
| 2026-04-22 17:58 | 12.76396 | 8.61832 | 12001 ft | 204 kts | 275° |
| 2026-04-22 17:58 | 12.76527 | 8.60369 | 12000 ft | 204 kts | 275° |
| 2026-04-22 17:59 | 12.76656 | 8.58924 | 12001 ft | 204 kts | 275° |
| 2026-04-22 17:59 | 12.76782 | 8.57504 | 12001 ft | 204 kts | 275° |
| 2026-04-22 17:59 | 12.76911 | 8.56052 | 12001 ft | 204 kts | 275° |
| 2026-04-22 17:59 | 12.77039 | 8.54610 | 12001 ft | 204 kts | 275° |
| 2026-04-22 18:00 | 12.77125 | 8.53630 | 12001 ft | 204 kts | 275° |
| 2026-04-22 18:00 | 12.77291 | 8.51719 | 12001 ft | 204 kts | 275° |
| 2026-04-22 18:00 | 12.77416 | 8.50269 | 12001 ft | 204 kts | 275° |
| 2026-04-22 18:00 | 12.77542 | 8.48825 | 12001 ft | 204 kts | 275° |
| 2026-04-22 18:01 | 12.77667 | 8.47377 | 12001 ft | 204 kts | 275° |
| 2026-04-22 18:01 | 12.77793 | 8.45927 | 12001 ft | 204 kts | 275° |
| 2026-04-22 18:01 | 12.77918 | 8.44481 | 12002 ft | 204 kts | 275° |
| 2026-04-22 18:01 | 12.78043 | 8.43035 | 12002 ft | 204 kts | 275° |
| 2026-04-22 18:02 | 12.78169 | 8.41584 | 12002 ft | 204 kts | 275° |
| 2026-04-22 18:02 | 12.78297 | 8.40136 | 12002 ft | 204 kts | 275° |
| 2026-04-22 18:02 | 12.78426 | 8.38688 | 12001 ft | 204 kts | 275° |
| 2026-04-22 18:02 | 12.78552 | 8.37244 | 12001 ft | 204 kts | 275° |
| 2026-04-22 18:03 | 12.78680 | 8.35796 | 12002 ft | 204 kts | 275° |
| 2026-04-22 18:03 | 12.78807 | 8.34350 | 12002 ft | 204 kts | 275° |
| 2026-04-22 18:03 | 12.78934 | 8.32903 | 12002 ft | 204 kts | 275° |
| 2026-04-22 18:03 | 12.79060 | 8.31475 | 12002 ft | 204 kts | 275° |
| 2026-04-22 18:04 | 12.79188 | 8.30029 | 12002 ft | 204 kts | 275° |
| 2026-04-22 18:04 | 12.79314 | 8.28581 | 12002 ft | 204 kts | 275° |
| 2026-04-22 18:04 | 12.79441 | 8.27129 | 12002 ft | 204 kts | 275° |
| 2026-04-22 18:04 | 12.79569 | 8.25680 | 12003 ft | 204 kts | 275° |
| 2026-04-22 18:05 | 12.79695 | 8.24230 | 12002 ft | 204 kts | 275° |
| 2026-04-22 18:05 | 12.79822 | 8.22783 | 12001 ft | 204 kts | 275° |
| 2026-04-22 18:05 | 12.79948 | 8.21339 | 12001 ft | 204 kts | 275° |
| 2026-04-22 18:05 | 12.80075 | 8.19893 | 12001 ft | 203 kts | 275° |
| 2026-04-22 18:06 | 12.80201 | 8.18450 | 12001 ft | 203 kts | 275° |
| 2026-04-22 18:06 | 12.80326 | 8.17014 | 12001 ft | 204 kts | 275° |
| 2026-04-22 18:06 | 12.80454 | 8.15561 | 12000 ft | 204 kts | 275° |
| 2026-04-22 18:06 | 12.80580 | 8.14115 | 12001 ft | 204 kts | 275° |
| 2026-04-22 18:07 | 12.80706 | 8.12670 | 11999 ft | 204 kts | 275° |
| 2026-04-22 18:07 | 12.80831 | 8.11226 | 12000 ft | 204 kts | 275° |
| 2026-04-22 18:07 | 12.80958 | 8.09773 | 12001 ft | 204 kts | 275° |
| 2026-04-22 18:07 | 12.81084 | 8.08329 | 12002 ft | 204 kts | 275° |
| 2026-04-22 18:08 | 12.81210 | 8.06882 | 12001 ft | 204 kts | 275° |
| 2026-04-22 18:08 | 12.81335 | 8.05433 | 12001 ft | 204 kts | 275° |
| 2026-04-22 18:08 | 12.81458 | 8.04011 | 12002 ft | 204 kts | 275° |
| 2026-04-22 18:08 | 12.81583 | 8.02568 | 12002 ft | 204 kts | 275° |
| 2026-04-22 18:09 | 12.81710 | 8.01117 | 12002 ft | 204 kts | 275° |
| 2026-04-22 18:09 | 12.81835 | 7.99677 | 12002 ft | 204 kts | 275° |
| 2026-04-22 18:09 | 12.81961 | 7.98222 | 12002 ft | 204 kts | 275° |
| 2026-04-22 18:09 | 12.82086 | 7.96775 | 12002 ft | 204 kts | 275° |
| 2026-04-22 18:10 | 12.82210 | 7.95340 | 12002 ft | 204 kts | 275° |
| 2026-04-22 18:10 | 12.82336 | 7.93883 | 12002 ft | 204 kts | 275° |
| 2026-04-22 18:10 | 12.82460 | 7.92441 | 12002 ft | 204 kts | 275° |
| 2026-04-22 18:10 | 12.82586 | 7.90990 | 12002 ft | 204 kts | 275° |
| 2026-04-22 18:11 | 12.82711 | 7.89544 | 12002 ft | 204 kts | 275° |
| 2026-04-22 18:11 | 12.82835 | 7.88096 | 12002 ft | 204 kts | 275° |
| 2026-04-22 18:11 | 12.82960 | 7.86650 | 12002 ft | 204 kts | 275° |
| 2026-04-22 18:11 | 12.83085 | 7.85205 | 12002 ft | 204 kts | 275° |
| 2026-04-22 18:12 | 12.83210 | 7.83759 | 12002 ft | 204 kts | 275° |
| 2026-04-22 18:12 | 12.83334 | 7.82311 | 12002 ft | 204 kts | 275° |
| 2026-04-22 18:12 | 12.83416 | 7.81354 | 12002 ft | 204 kts | 275° |
| 2026-04-22 18:12 | 12.83582 | 7.79419 | 12002 ft | 204 kts | 275° |
| 2026-04-22 18:13 | 12.83706 | 7.77974 | 12002 ft | 204 kts | 275° |
| 2026-04-22 18:13 | 12.83831 | 7.76526 | 12003 ft | 204 kts | 275° |
| 2026-04-22 18:13 | 12.83957 | 7.75081 | 12002 ft | 204 kts | 275° |
| 2026-04-22 18:13 | 12.84082 | 7.73634 | 12003 ft | 204 kts | 275° |
| 2026-04-22 18:14 | 12.84207 | 7.72191 | 12004 ft | 204 kts | 275° |
| 2026-04-22 18:14 | 12.84332 | 7.70747 | 12004 ft | 204 kts | 275° |
| 2026-04-22 18:14 | 12.84456 | 7.69302 | 12005 ft | 204 kts | 275° |
| 2026-04-22 18:14 | 12.84582 | 7.67848 | 12004 ft | 204 kts | 275° |
| 2026-04-22 18:15 | 12.84706 | 7.66406 | 12004 ft | 204 kts | 275° |
| 2026-04-22 18:15 | 12.84829 | 7.64977 | 12004 ft | 204 kts | 275° |
| 2026-04-22 18:15 | 12.84954 | 7.63529 | 12005 ft | 204 kts | 275° |
| 2026-04-22 18:15 | 12.85079 | 7.62067 | 12005 ft | 204 kts | 275° |
| 2026-04-22 18:16 | 12.85204 | 7.60618 | 12005 ft | 204 kts | 275° |
| 2026-04-22 18:16 | 12.85327 | 7.59189 | 12005 ft | 204 kts | 275° |
| 2026-04-22 18:16 | 12.85453 | 7.57721 | 12005 ft | 204 kts | 275° |
| 2026-04-22 18:16 | 12.85577 | 7.56276 | 12005 ft | 204 kts | 275° |
| 2026-04-22 18:17 | 12.85701 | 7.54829 | 12005 ft | 204 kts | 275° |
| 2026-04-22 18:17 | 12.85823 | 7.53406 | 12005 ft | 204 kts | 275° |
| 2026-04-22 18:17 | 12.85947 | 7.51952 | 12005 ft | 204 kts | 275° |
| 2026-04-22 18:17 | 12.86072 | 7.50507 | 12005 ft | 204 kts | 275° |
| 2026-04-22 18:18 | 12.86195 | 7.49067 | 12005 ft | 204 kts | 275° |
| 2026-04-22 18:18 | 12.86319 | 7.47613 | 12005 ft | 204 kts | 275° |
| 2026-04-22 18:18 | 12.86443 | 7.46166 | 12005 ft | 204 kts | 275° |
| 2026-04-22 18:18 | 12.86567 | 7.44718 | 12005 ft | 204 kts | 275° |
| 2026-04-22 18:19 | 12.86690 | 7.43271 | 12005 ft | 204 kts | 275° |
| 2026-04-22 18:19 | 12.86813 | 7.41827 | 12005 ft | 204 kts | 275° |
| 2026-04-22 18:19 | 12.86936 | 7.40382 | 12005 ft | 204 kts | 275° |
| 2026-04-22 18:19 | 12.87059 | 7.38933 | 12005 ft | 204 kts | 275° |
| 2026-04-22 18:20 | 12.87182 | 7.37488 | 12005 ft | 204 kts | 275° |
| 2026-04-22 18:20 | 12.87306 | 7.36041 | 12005 ft | 204 kts | 275° |
| 2026-04-22 18:20 | 12.87429 | 7.34592 | 12005 ft | 204 kts | 275° |
| 2026-04-22 18:20 | 12.87551 | 7.33145 | 12005 ft | 204 kts | 275° |
| 2026-04-22 18:21 | 12.87674 | 7.31705 | 12005 ft | 204 kts | 275° |
| 2026-04-22 18:21 | 12.87788 | 7.30258 | 12005 ft | 204 kts | 273° |
| 2026-04-22 18:21 | 12.87901 | 7.28805 | 12005 ft | 204 kts | 276° |
| 2026-04-22 18:21 | 12.88038 | 7.27364 | 12005 ft | 204 kts | 275° |
| 2026-04-22 18:22 | 12.88167 | 7.25911 | 12006 ft | 204 kts | 275° |
| 2026-04-22 18:22 | 12.88288 | 7.24464 | 12005 ft | 204 kts | 275° |
| 2026-04-22 18:22 | 12.88409 | 7.23016 | 12006 ft | 204 kts | 275° |
| 2026-04-22 18:22 | 12.88532 | 7.21569 | 12006 ft | 204 kts | 275° |
| 2026-04-22 18:23 | 12.88654 | 7.20121 | 12006 ft | 204 kts | 275° |
| 2026-04-22 18:23 | 12.88777 | 7.18677 | 12006 ft | 204 kts | 275° |
| 2026-04-22 18:23 | 12.88897 | 7.17247 | 12006 ft | 204 kts | 275° |
| 2026-04-22 18:24 | 12.89141 | 7.14349 | 12006 ft | 204 kts | 275° |
| 2026-04-22 18:24 | 12.89263 | 7.12900 | 12006 ft | 204 kts | 275° |
| 2026-04-22 18:24 | 12.89506 | 7.10003 | 12007 ft | 204 kts | 275° |
| 2026-04-22 18:25 | 12.89628 | 7.08552 | 12006 ft | 204 kts | 275° |
| 2026-04-22 18:25 | 12.89750 | 7.07105 | 12006 ft | 204 kts | 275° |
| 2026-04-22 18:25 | 12.89871 | 7.05658 | 12007 ft | 204 kts | 275° |
| 2026-04-22 18:26 | 12.90114 | 7.02758 | 12006 ft | 204 kts | 275° |
| 2026-04-22 18:26 | 12.90235 | 7.01305 | 12006 ft | 204 kts | 275° |
| 2026-04-22 18:26 | 12.90357 | 6.99857 | 12006 ft | 204 kts | 275° |
| 2026-04-22 18:26 | 12.90478 | 6.98407 | 12006 ft | 204 kts | 275° |
| 2026-04-22 18:27 | 12.90599 | 6.96963 | 12007 ft | 204 kts | 275° |
| 2026-04-22 18:27 | 12.90720 | 6.95508 | 12006 ft | 204 kts | 275° |
| 2026-04-22 18:27 | 12.90840 | 6.94061 | 12006 ft | 204 kts | 275° |
| 2026-04-22 18:27 | 12.90962 | 6.92614 | 12006 ft | 204 kts | 275° |
| 2026-04-22 18:28 | 12.91083 | 6.91166 | 12006 ft | 204 kts | 275° |
| 2026-04-22 18:28 | 12.91203 | 6.89719 | 12006 ft | 204 kts | 275° |
| 2026-04-22 18:28 | 12.91323 | 6.88274 | 12006 ft | 204 kts | 275° |
| 2026-04-22 18:28 | 12.91443 | 6.86824 | 12006 ft | 204 kts | 275° |
| 2026-04-22 18:29 | 12.91563 | 6.85379 | 12006 ft | 204 kts | 275° |
| 2026-04-22 18:29 | 12.91683 | 6.83940 | 12006 ft | 204 kts | 275° |
| 2026-04-22 18:29 | 12.91806 | 6.82488 | 12006 ft | 204 kts | 275° |
| 2026-04-22 18:29 | 12.91928 | 6.81041 | 12006 ft | 204 kts | 275° |
| 2026-04-22 18:30 | 12.92049 | 6.79595 | 12007 ft | 204 kts | 275° |
| 2026-04-22 18:30 | 12.92290 | 6.76718 | 12006 ft | 204 kts | 275° |
| 2026-04-22 18:30 | 12.92413 | 6.75255 | 12007 ft | 204 kts | 275° |
| 2026-04-22 18:31 | 12.92533 | 6.73820 | 12007 ft | 204 kts | 275° |
| 2026-04-22 18:31 | 12.92654 | 6.72374 | 12007 ft | 204 kts | 275° |
| 2026-04-22 18:31 | 12.92776 | 6.70927 | 12008 ft | 204 kts | 275° |
| 2026-04-22 18:31 | 12.92896 | 6.69488 | 12007 ft | 204 kts | 275° |
| 2026-04-22 18:32 | 12.92979 | 6.68497 | 12007 ft | 204 kts | 275° |
| 2026-04-22 18:32 | 12.93139 | 6.66579 | 12008 ft | 204 kts | 275° |
| 2026-04-22 18:32 | 12.93260 | 6.65128 | 12007 ft | 204 kts | 275° |
| 2026-04-22 18:32 | 12.93381 | 6.63684 | 12007 ft | 204 kts | 275° |
| 2026-04-22 18:33 | 12.93502 | 6.62229 | 12008 ft | 204 kts | 275° |
| 2026-04-22 18:33 | 12.93622 | 6.60785 | 12008 ft | 204 kts | 275° |
| 2026-04-22 18:33 | 12.93744 | 6.59328 | 12007 ft | 204 kts | 275° |
| 2026-04-22 18:33 | 12.93865 | 6.57878 | 12008 ft | 204 kts | 275° |
| 2026-04-22 18:34 | 12.93984 | 6.56433 | 12007 ft | 204 kts | 275° |
| 2026-04-22 18:34 | 12.94105 | 6.54984 | 12007 ft | 204 kts | 275° |
| 2026-04-22 18:34 | 12.94225 | 6.53538 | 12008 ft | 204 kts | 275° |
| 2026-04-22 18:34 | 12.94345 | 6.52086 | 12007 ft | 204 kts | 275° |
| 2026-04-22 18:35 | 12.94464 | 6.50658 | 12007 ft | 204 kts | 275° |
| 2026-04-22 18:35 | 12.94583 | 6.49212 | 12008 ft | 204 kts | 275° |
| 2026-04-22 18:35 | 12.94704 | 6.47758 | 12007 ft | 204 kts | 275° |
| 2026-04-22 18:35 | 12.94784 | 6.46786 | 12008 ft | 204 kts | 275° |
| 2026-04-22 18:36 | 12.94942 | 6.44868 | 11420 ft | 202 kts | 277° |
| 2026-04-22 18:36 | 12.95060 | 6.43440 | 11531 ft | 200 kts | 277° |
| 2026-04-22 18:36 | 12.95139 | 6.42480 | 11608 ft | 200 kts | 277° |
| 2026-04-22 18:36 | 12.95256 | 6.41069 | 11723 ft | 198 kts | 277° |
| 2026-04-22 18:37 | 12.95373 | 6.39648 | 11764 ft | 203 kts | 277° |
| 2026-04-22 18:37 | 12.95494 | 6.38195 | 11761 ft | 207 kts | 277° |
| 2026-04-22 18:37 | 12.95614 | 6.36736 | 11766 ft | 209 kts | 277° |
| 2026-04-22 18:37 | 12.95737 | 6.35241 | 11770 ft | 211 kts | 277° |
| 2026-04-22 18:38 | 12.95862 | 6.33713 | 11774 ft | 213 kts | 277° |
| 2026-04-22 18:38 | 12.95987 | 6.32200 | 11776 ft | 214 kts | 277° |
| 2026-04-22 18:38 | 12.96110 | 6.30698 | 11775 ft | 214 kts | 277° |
| 2026-04-22 18:39 | 12.96361 | 6.27647 | 11774 ft | 215 kts | 277° |
| 2026-04-22 18:39 | 12.96485 | 6.26122 | 11775 ft | 215 kts | 277° |
| 2026-04-22 18:39 | 12.96610 | 6.24597 | 11773 ft | 215 kts | 277° |
| 2026-04-22 18:39 | 12.96736 | 6.23062 | 11771 ft | 215 kts | 277° |
| 2026-04-22 18:40 | 12.96860 | 6.21545 | 11769 ft | 215 kts | 277° |
| 2026-04-22 18:40 | 12.96986 | 6.20008 | 11771 ft | 215 kts | 277° |
| 2026-04-22 18:40 | 12.97110 | 6.18477 | 11771 ft | 215 kts | 277° |
| 2026-04-22 18:40 | 12.97235 | 6.16955 | 11771 ft | 215 kts | 277° |
| 2026-04-22 18:41 | 12.97360 | 6.15422 | 11771 ft | 215 kts | 277° |
| 2026-04-22 18:41 | 12.97484 | 6.13893 | 11771 ft | 215 kts | 277° |
| 2026-04-22 18:41 | 12.97609 | 6.12360 | 11771 ft | 215 kts | 277° |
| 2026-04-22 18:41 | 12.97734 | 6.10829 | 11772 ft | 215 kts | 277° |
| 2026-04-22 18:42 | 12.97856 | 6.09323 | 11771 ft | 215 kts | 277° |
| 2026-04-22 18:42 | 12.97982 | 6.07774 | 11772 ft | 215 kts | 277° |
| 2026-04-22 18:42 | 12.98106 | 6.06240 | 11772 ft | 216 kts | 277° |
| 2026-04-22 18:42 | 12.98231 | 6.04707 | 11772 ft | 216 kts | 277° |
| 2026-04-22 18:43 | 12.98355 | 6.03174 | 11769 ft | 216 kts | 277° |
| 2026-04-22 18:43 | 12.98480 | 6.01642 | 11769 ft | 216 kts | 277° |
| 2026-04-22 18:43 | 12.98604 | 6.00099 | 11770 ft | 217 kts | 277° |
| 2026-04-22 18:43 | 12.98729 | 5.98560 | 11769 ft | 216 kts | 277° |
| 2026-04-22 18:44 | 12.98853 | 5.97021 | 11769 ft | 217 kts | 277° |
| 2026-04-22 18:44 | 12.98978 | 5.95483 | 11770 ft | 217 kts | 277° |
| 2026-04-22 18:44 | 12.99102 | 5.93942 | 11770 ft | 217 kts | 277° |
| 2026-04-22 18:44 | 12.99226 | 5.92410 | 11767 ft | 217 kts | 277° |
| 2026-04-22 18:45 | 12.99348 | 5.90896 | 11769 ft | 217 kts | 277° |
| 2026-04-22 18:45 | 12.99474 | 5.89325 | 11769 ft | 217 kts | 277° |
| 2026-04-22 18:45 | 12.99598 | 5.87785 | 11769 ft | 217 kts | 277° |
| 2026-04-22 18:45 | 12.99722 | 5.86245 | 11769 ft | 217 kts | 277° |
| 2026-04-22 18:46 | 12.99845 | 5.84704 | 11767 ft | 217 kts | 277° |
| 2026-04-22 18:46 | 12.99970 | 5.83164 | 11767 ft | 217 kts | 277° |
| 2026-04-22 18:46 | 13.00095 | 5.81627 | 11768 ft | 216 kts | 277° |
| 2026-04-22 18:46 | 13.00220 | 5.80092 | 11768 ft | 216 kts | 277° |
| 2026-04-22 18:47 | 13.00345 | 5.78550 | 11767 ft | 216 kts | 277° |
| 2026-04-22 18:47 | 13.00468 | 5.77039 | 11767 ft | 216 kts | 277° |
| 2026-04-22 18:47 | 13.00593 | 5.75496 | 11767 ft | 216 kts | 277° |
| 2026-04-22 18:47 | 13.00717 | 5.73965 | 11767 ft | 216 kts | 277° |
| 2026-04-22 18:48 | 13.00841 | 5.72431 | 11769 ft | 216 kts | 277° |
| 2026-04-22 18:48 | 13.00966 | 5.70893 | 11767 ft | 216 kts | 277° |
| 2026-04-22 18:48 | 13.01089 | 5.69363 | 11767 ft | 216 kts | 277° |
| 2026-04-22 18:48 | 13.01214 | 5.67817 | 11767 ft | 216 kts | 277° |
| 2026-04-22 18:49 | 13.01338 | 5.66283 | 11767 ft | 216 kts | 277° |
| 2026-04-22 18:49 | 13.01464 | 5.64723 | 11768 ft | 216 kts | 277° |
| 2026-04-22 18:49 | 13.01586 | 5.63205 | 11767 ft | 217 kts | 277° |
| 2026-04-22 18:49 | 13.01710 | 5.61669 | 11767 ft | 217 kts | 276° |
| 2026-04-22 18:50 | 13.01834 | 5.60132 | 11765 ft | 216 kts | 277° |
| 2026-04-22 18:50 | 13.01958 | 5.58590 | 11766 ft | 217 kts | 276° |
| 2026-04-22 18:50 | 13.02082 | 5.57045 | 11766 ft | 217 kts | 276° |
| 2026-04-22 18:50 | 13.02206 | 5.55503 | 11766 ft | 217 kts | 276° |
| 2026-04-22 18:51 | 13.02330 | 5.53962 | 11768 ft | 217 kts | 277° |
| 2026-04-22 18:51 | 13.02443 | 5.52543 | 11768 ft | 217 kts | 277° |
| 2026-04-22 18:51 | 13.02525 | 5.51522 | 11769 ft | 217 kts | 277° |
| 2026-04-22 18:51 | 13.02649 | 5.49970 | 11769 ft | 217 kts | 277° |
| 2026-04-22 18:52 | 13.02772 | 5.48440 | 11769 ft | 217 kts | 276° |
| 2026-04-22 18:52 | 13.02895 | 5.46898 | 11768 ft | 217 kts | 277° |
| 2026-04-22 18:52 | 13.03020 | 5.45331 | 11768 ft | 217 kts | 276° |
| 2026-04-22 18:52 | 13.03143 | 5.43794 | 11768 ft | 217 kts | 277° |
| 2026-04-22 18:53 | 13.03264 | 5.42274 | 11767 ft | 217 kts | 277° |
| 2026-04-22 18:53 | 13.03390 | 5.40702 | 11767 ft | 217 kts | 276° |
| 2026-04-22 18:53 | 13.03512 | 5.39162 | 11767 ft | 217 kts | 277° |
| 2026-04-22 18:53 | 13.03634 | 5.37639 | 11767 ft | 217 kts | 277° |
| 2026-04-22 18:54 | 13.03756 | 5.36093 | 11771 ft | 217 kts | 277° |
| 2026-04-22 18:54 | 13.03879 | 5.34557 | 11771 ft | 218 kts | 277° |
| 2026-04-22 18:54 | 13.04002 | 5.33001 | 11765 ft | 218 kts | 277° |
| 2026-04-22 18:54 | 13.04123 | 5.31482 | 11765 ft | 217 kts | 277° |
| 2026-04-22 18:55 | 13.04248 | 5.29908 | 11762 ft | 217 kts | 277° |
| 2026-04-22 18:55 | 13.04371 | 5.28362 | 11762 ft | 217 kts | 277° |
| 2026-04-22 18:55 | 13.04493 | 5.26834 | 11761 ft | 217 kts | 277° |
| 2026-04-22 18:55 | 13.04617 | 5.25281 | 11762 ft | 217 kts | 277° |
| 2026-04-22 18:56 | 13.04739 | 5.23740 | 11766 ft | 217 kts | 277° |
| 2026-04-22 18:56 | 13.04860 | 5.22222 | 11765 ft | 217 kts | 277° |
| 2026-04-22 18:56 | 13.04984 | 5.20657 | 11766 ft | 217 kts | 277° |
| 2026-04-22 18:56 | 13.05106 | 5.19116 | 11766 ft | 217 kts | 277° |
| 2026-04-22 18:57 | 13.05229 | 5.17577 | 11764 ft | 217 kts | 277° |
| 2026-04-22 18:57 | 13.05348 | 5.16067 | 11764 ft | 217 kts | 277° |
| 2026-04-22 18:57 | 13.05472 | 5.14496 | 11764 ft | 217 kts | 277° |
| 2026-04-22 18:57 | 13.05595 | 5.12952 | 11764 ft | 217 kts | 277° |
| 2026-04-22 18:58 | 13.05716 | 5.11412 | 11764 ft | 217 kts | 277° |
| 2026-04-22 18:58 | 13.05838 | 5.09869 | 11764 ft | 217 kts | 277° |
| 2026-04-22 18:58 | 13.05960 | 5.08330 | 11764 ft | 217 kts | 277° |
| 2026-04-22 18:58 | 13.06081 | 5.06787 | 11764 ft | 217 kts | 277° |
| 2026-04-22 18:59 | 13.06203 | 5.05244 | 11764 ft | 217 kts | 277° |
| 2026-04-22 18:59 | 13.06324 | 5.03715 | 11765 ft | 217 kts | 277° |
| 2026-04-22 18:59 | 13.06446 | 5.02161 | 11764 ft | 217 kts | 277° |
| 2026-04-22 18:59 | 13.06565 | 5.00645 | 11765 ft | 217 kts | 277° |
| 2026-04-22 19:00 | 13.06688 | 4.99078 | 11765 ft | 217 kts | 277° |
| 2026-04-22 19:00 | 13.06808 | 4.97552 | 11764 ft | 217 kts | 277° |
| 2026-04-22 19:00 | 13.06929 | 4.96007 | 11764 ft | 217 kts | 277° |
| 2026-04-22 19:00 | 13.07051 | 4.94446 | 11765 ft | 217 kts | 277° |
| 2026-04-22 19:01 | 13.07171 | 4.92925 | 11765 ft | 217 kts | 277° |
| 2026-04-22 19:01 | 13.07257 | 4.91824 | 11765 ft | 217 kts | 277° |
| 2026-04-22 19:01 | 13.07270 | 4.91657 | 11765 ft | 217 kts | 277° |
| 2026-04-22 19:01 | 13.07283 | 4.91489 | 11765 ft | 217 kts | 277° |
| 2026-04-22 19:02 | 13.07287 | 4.91438 | 11765 ft | 217 kts | 277° |
| 2026-04-22 19:05 | 13.07296 | 4.91323 | 11764 ft | 217 kts | 277° |
| 2026-04-22 19:06 | 13.07301 | 4.91257 | 11764 ft | 217 kts | 277° |
| 2026-04-22 19:06 | 13.07315 | 4.91075 | 11764 ft | 217 kts | 277° |
| 2026-04-22 19:06 | 13.07320 | 4.91024 | 11764 ft | 217 kts | 277° |
| 2026-04-22 19:07 | 13.07332 | 4.90870 | 11764 ft | 217 kts | 277° |
| 2026-04-22 19:07 | 13.07336 | 4.90819 | 11766 ft | 217 kts | 277° |
| 2026-04-22 19:07 | 13.07340 | 4.90768 | 11763 ft | 217 kts | 277° |
| 2026-04-22 19:07 | 13.07344 | 4.90716 | 11763 ft | 217 kts | 277° |
| 2026-04-22 19:08 | 13.07348 | 4.90665 | 11763 ft | 217 kts | 277° |
| 2026-04-22 19:08 | 13.07352 | 4.90614 | 11763 ft | 217 kts | 277° |
| 2026-04-22 19:08 | 13.07356 | 4.90563 | 11766 ft | 217 kts | 277° |
| 2026-04-22 19:08 | 13.07462 | 4.89198 | 11766 ft | 217 kts | 277° |
| 2026-04-22 19:09 | 13.07587 | 4.87609 | 11766 ft | 217 kts | 277° |
| 2026-04-22 19:09 | 13.07707 | 4.86069 | 11765 ft | 216 kts | 277° |
| 2026-04-22 19:09 | 13.07788 | 4.85026 | 12425 ft | 217 kts | 275° |
| 2026-04-22 19:09 | 13.07947 | 4.82986 | 11772 ft | 216 kts | 276° |
| 2026-04-22 19:10 | 13.08068 | 4.81443 | 11774 ft | 218 kts | 277° |
| 2026-04-22 19:10 | 13.08188 | 4.79890 | 11774 ft | 219 kts | 276° |
| 2026-04-22 19:10 | 13.08310 | 4.78327 | 11775 ft | 220 kts | 276° |
| 2026-04-22 19:10 | 13.08431 | 4.76764 | 11776 ft | 220 kts | 276° |
| 2026-04-22 19:11 | 13.08553 | 4.75195 | 11774 ft | 221 kts | 276° |
| 2026-04-22 19:11 | 13.08675 | 4.73628 | 11774 ft | 220 kts | 276° |
| 2026-04-22 19:11 | 13.08796 | 4.72060 | 11778 ft | 220 kts | 277° |
| 2026-04-22 19:11 | 13.08917 | 4.70503 | 11777 ft | 221 kts | 277° |
| 2026-04-22 19:12 | 13.09032 | 4.69018 | 11773 ft | 220 kts | 276° |
| 2026-04-22 19:12 | 13.09151 | 4.67473 | 11775 ft | 220 kts | 276° |
| 2026-04-22 19:12 | 13.09274 | 4.65911 | 11771 ft | 220 kts | 277° |
| 2026-04-22 19:12 | 13.09403 | 4.64347 | 11771 ft | 220 kts | 277° |
| 2026-04-22 19:13 | 13.09534 | 4.62781 | 11774 ft | 220 kts | 277° |
| 2026-04-22 19:13 | 13.09661 | 4.61237 | 11775 ft | 220 kts | 277° |
| 2026-04-22 19:13 | 13.09791 | 4.59669 | 11773 ft | 220 kts | 277° |
| 2026-04-22 19:13 | 13.09920 | 4.58104 | 11774 ft | 220 kts | 277° |
| 2026-04-22 19:14 | 13.10049 | 4.56539 | 11777 ft | 220 kts | 277° |
| 2026-04-22 19:14 | 13.10177 | 4.54971 | 11778 ft | 221 kts | 277° |
| 2026-04-22 19:14 | 13.10306 | 4.53403 | 11777 ft | 221 kts | 277° |
| 2026-04-22 19:14 | 13.10435 | 4.51836 | 11777 ft | 220 kts | 277° |
| 2026-04-22 19:15 | 13.10520 | 4.50798 | 11776 ft | 220 kts | 277° |
| 2026-04-22 19:15 | 13.10693 | 4.48703 | 11777 ft | 221 kts | 277° |
| 2026-04-22 19:15 | 13.10821 | 4.47134 | 11777 ft | 221 kts | 277° |
| 2026-04-22 19:15 | 13.10950 | 4.45557 | 11777 ft | 222 kts | 277° |
| 2026-04-22 19:16 | 13.11078 | 4.44002 | 11776 ft | 221 kts | 277° |
| 2026-04-22 19:16 | 13.11208 | 4.42409 | 11778 ft | 221 kts | 277° |
| 2026-04-22 19:16 | 13.11336 | 4.40852 | 11780 ft | 222 kts | 277° |
| 2026-04-22 19:16 | 13.11464 | 4.39274 | 11778 ft | 222 kts | 277° |
| 2026-04-22 19:17 | 13.11592 | 4.37701 | 11778 ft | 221 kts | 277° |
| 2026-04-22 19:17 | 13.11720 | 4.36130 | 11780 ft | 221 kts | 277° |
| 2026-04-22 19:17 | 13.11848 | 4.34559 | 11782 ft | 221 kts | 277° |
| 2026-04-22 19:17 | 13.11977 | 4.32982 | 11781 ft | 221 kts | 277° |
| 2026-04-22 19:18 | 13.12105 | 4.31412 | 11779 ft | 221 kts | 277° |
| 2026-04-22 19:18 | 13.12232 | 4.29842 | 11778 ft | 221 kts | 277° |
| 2026-04-22 19:18 | 13.12360 | 4.28270 | 11778 ft | 221 kts | 277° |
| 2026-04-22 19:18 | 13.12488 | 4.26698 | 11779 ft | 221 kts | 277° |
| 2026-04-22 19:19 | 13.12615 | 4.25126 | 11783 ft | 221 kts | 277° |
| 2026-04-22 19:19 | 13.12742 | 4.23550 | 11782 ft | 222 kts | 277° |
| 2026-04-22 19:19 | 13.12870 | 4.21971 | 11782 ft | 222 kts | 277° |
| 2026-04-22 19:19 | 13.12998 | 4.20392 | 11783 ft | 222 kts | 277° |
| 2026-04-22 19:20 | 13.13126 | 4.18813 | 11776 ft | 222 kts | 277° |
| 2026-04-22 19:20 | 13.13254 | 4.17236 | 11778 ft | 222 kts | 276° |
| 2026-04-22 19:20 | 13.13380 | 4.15655 | 11777 ft | 222 kts | 276° |
| 2026-04-22 19:20 | 13.13508 | 4.14077 | 11777 ft | 222 kts | 277° |
| 2026-04-22 19:21 | 13.13637 | 4.12496 | 11780 ft | 222 kts | 277° |
| 2026-04-22 19:21 | 13.13788 | 4.11466 | 11779 ft | 220 kts | 283° |
| 2026-04-22 19:21 | 13.14086 | 4.09922 | 11780 ft | 220 kts | 283° |
| 2026-04-22 19:21 | 13.14375 | 4.08380 | 11780 ft | 220 kts | 283° |
| 2026-04-22 19:22 | 13.14750 | 4.06336 | 11778 ft | 219 kts | 283° |
| 2026-04-22 19:22 | 13.14941 | 4.05297 | 11777 ft | 219 kts | 283° |
| 2026-04-22 19:22 | 13.15223 | 4.03763 | 11776 ft | 219 kts | 283° |
| 2026-04-22 19:22 | 13.15507 | 4.02230 | 11769 ft | 219 kts | 283° |
| 2026-04-22 19:23 | 13.15792 | 4.00699 | 11776 ft | 219 kts | 283° |
| 2026-04-22 19:23 | 13.16073 | 3.99163 | 11777 ft | 219 kts | 283° |
| 2026-04-22 19:23 | 13.16357 | 3.97623 | 11780 ft | 220 kts | 283° |
| 2026-04-22 19:23 | 13.16642 | 3.96078 | 11784 ft | 220 kts | 283° |
| 2026-04-22 19:24 | 13.16927 | 3.94531 | 11785 ft | 220 kts | 283° |
| 2026-04-22 19:24 | 13.17208 | 3.93007 | 11784 ft | 220 kts | 283° |
| 2026-04-22 19:24 | 13.17492 | 3.91465 | 11784 ft | 220 kts | 283° |
| 2026-04-22 19:24 | 13.17777 | 3.89921 | 11788 ft | 220 kts | 283° |
| 2026-04-22 19:25 | 13.18061 | 3.88377 | 11788 ft | 220 kts | 283° |
| 2026-04-22 19:25 | 13.18344 | 3.86832 | 11790 ft | 220 kts | 283° |
| 2026-04-22 19:25 | 13.18629 | 3.85289 | 11791 ft | 220 kts | 283° |
| 2026-04-22 19:25 | 13.18913 | 3.83743 | 11791 ft | 220 kts | 283° |
| 2026-04-22 19:26 | 13.19197 | 3.82197 | 11791 ft | 220 kts | 283° |
| 2026-04-22 19:26 | 13.19480 | 3.80656 | 11794 ft | 220 kts | 283° |
| 2026-04-22 19:26 | 13.19763 | 3.79115 | 11794 ft | 220 kts | 283° |
| 2026-04-22 19:26 | 13.20045 | 3.77576 | 11792 ft | 219 kts | 283° |
| 2026-04-22 19:27 | 13.20327 | 3.76042 | 11791 ft | 219 kts | 283° |
| 2026-04-22 19:27 | 13.20608 | 3.74510 | 11789 ft | 219 kts | 283° |
| 2026-04-22 19:27 | 13.20891 | 3.72968 | 11789 ft | 220 kts | 282° |
| 2026-04-22 19:27 | 13.21172 | 3.71430 | 11790 ft | 219 kts | 283° |
| 2026-04-22 19:28 | 13.21454 | 3.69889 | 11790 ft | 219 kts | 283° |
| 2026-04-22 19:28 | 13.21737 | 3.68351 | 11795 ft | 220 kts | 282° |
| 2026-04-22 19:28 | 13.22018 | 3.66812 | 11796 ft | 220 kts | 283° |
| 2026-04-22 19:28 | 13.22300 | 3.65274 | 11795 ft | 218 kts | 282° |
| 2026-04-22 19:29 | 13.22579 | 3.63749 | 11793 ft | 217 kts | 282° |
| 2026-04-22 19:29 | 13.22855 | 3.62238 | 11785 ft | 213 kts | 283° |
| 2026-04-22 19:29 | 13.23125 | 3.60761 | 11779 ft | 209 kts | 283° |
| 2026-04-22 19:29 | 13.23390 | 3.59310 | 11775 ft | 206 kts | 283° |
| 2026-04-22 19:30 | 13.23564 | 3.58362 | 11778 ft | 203 kts | 283° |
| 2026-04-22 19:30 | 13.23910 | 3.56466 | 11780 ft | 200 kts | 283° |
| 2026-04-22 19:30 | 13.24165 | 3.55071 | 11777 ft | 199 kts | 283° |
| 2026-04-22 19:30 | 13.24418 | 3.53682 | 11777 ft | 198 kts | 283° |
| 2026-04-22 19:31 | 13.24669 | 3.52310 | 11779 ft | 198 kts | 283° |
| 2026-04-22 19:31 | 13.24924 | 3.50916 | 11781 ft | 201 kts | 283° |
| 2026-04-22 19:31 | 13.25182 | 3.49501 | 11785 ft | 203 kts | 283° |
| 2026-04-22 19:31 | 13.25443 | 3.48067 | 11788 ft | 206 kts | 283° |
| 2026-04-22 19:32 | 13.25707 | 3.46619 | 11792 ft | 207 kts | 283° |
| 2026-04-22 19:32 | 13.25973 | 3.45159 | 11793 ft | 209 kts | 283° |
| 2026-04-22 19:32 | 13.26241 | 3.43691 | 11795 ft | 210 kts | 283° |
| 2026-04-22 19:32 | 13.26508 | 3.42219 | 11797 ft | 210 kts | 283° |
| 2026-04-22 19:33 | 13.26778 | 3.40741 | 11796 ft | 211 kts | 283° |
| 2026-04-22 19:33 | 13.27047 | 3.39265 | 11796 ft | 210 kts | 283° |
| 2026-04-22 19:33 | 13.27315 | 3.37789 | 11793 ft | 210 kts | 283° |
| 2026-04-22 19:33 | 13.27582 | 3.36313 | 11795 ft | 210 kts | 283° |
| 2026-04-22 19:34 | 13.27852 | 3.34837 | 11795 ft | 211 kts | 283° |
| 2026-04-22 19:34 | 13.28120 | 3.33355 | 11791 ft | 211 kts | 283° |
| 2026-04-22 19:34 | 13.28389 | 3.31878 | 11794 ft | 211 kts | 283° |
| 2026-04-22 19:34 | 13.28659 | 3.30398 | 11794 ft | 211 kts | 283° |
| 2026-04-22 19:35 | 13.28927 | 3.28916 | 11796 ft | 211 kts | 283° |
| 2026-04-22 19:35 | 13.29193 | 3.27446 | 11793 ft | 205 kts | 282° |
| 2026-04-22 19:35 | 13.29445 | 3.26043 | 11784 ft | 196 kts | 283° |
| 2026-04-22 19:35 | 13.29688 | 3.24691 | 11780 ft | 190 kts | 282° |
| 2026-04-22 19:36 | 13.29922 | 3.23375 | 11777 ft | 185 kts | 282° |
| 2026-04-22 19:36 | 13.30148 | 3.22084 | 11775 ft | 183 kts | 282° |
| 2026-04-22 19:36 | 13.30377 | 3.20768 | 11779 ft | 191 kts | 283° |
| 2026-04-22 19:36 | 13.30615 | 3.19404 | 11785 ft | 197 kts | 283° |
| 2026-04-22 19:37 | 13.30859 | 3.18005 | 11798 ft | 200 kts | 282° |
| 2026-04-22 19:37 | 13.31107 | 3.16590 | 11795 ft | 203 kts | 282° |
| 2026-04-22 19:37 | 13.31357 | 3.15168 | 11797 ft | 206 kts | 283° |
| 2026-04-22 19:37 | 13.31614 | 3.13716 | 11798 ft | 208 kts | 282° |
| 2026-04-22 19:38 | 13.31873 | 3.12252 | 11792 ft | 209 kts | 282° |
| 2026-04-22 19:38 | 13.32133 | 3.10782 | 11793 ft | 209 kts | 282° |
| 2026-04-22 19:38 | 13.32395 | 3.09312 | 11793 ft | 210 kts | 282° |
| 2026-04-22 19:38 | 13.32658 | 3.07837 | 11794 ft | 210 kts | 283° |
| 2026-04-22 19:39 | 13.32922 | 3.06356 | 11795 ft | 211 kts | 282° |
| 2026-04-22 19:39 | 13.33187 | 3.04874 | 11792 ft | 211 kts | 282° |
| 2026-04-22 19:39 | 13.33454 | 3.03390 | 11798 ft | 211 kts | 282° |
| 2026-04-22 19:39 | 13.33721 | 3.01906 | 11799 ft | 211 kts | 282° |
| 2026-04-22 19:40 | 13.33987 | 3.00424 | 11798 ft | 211 kts | 282° |
| 2026-04-22 19:40 | 13.34254 | 2.98941 | 11798 ft | 211 kts | 282° |
| 2026-04-22 19:40 | 13.34522 | 2.97457 | 11797 ft | 212 kts | 282° |
| 2026-04-22 19:40 | 13.34790 | 2.95972 | 11796 ft | 211 kts | 283° |
| 2026-04-22 19:41 | 13.35111 | 2.94503 | 11797 ft | 211 kts | 285° |
| 2026-04-22 19:41 | 13.35422 | 2.93033 | 11796 ft | 211 kts | 283° |
| 2026-04-22 19:41 | 13.35687 | 2.91549 | 11795 ft | 211 kts | 282° |
| 2026-04-22 19:41 | 13.35949 | 2.90063 | 11796 ft | 211 kts | 282° |
| 2026-04-22 19:42 | 13.36214 | 2.88579 | 11799 ft | 211 kts | 283° |
| 2026-04-22 19:42 | 13.36482 | 2.87099 | 11799 ft | 211 kts | 283° |
| 2026-04-22 19:42 | 13.36748 | 2.85618 | 11799 ft | 211 kts | 283° |
| 2026-04-22 19:42 | 13.37014 | 2.84138 | 11799 ft | 211 kts | 282° |
| 2026-04-22 19:43 | 13.37545 | 2.81182 | 11800 ft | 210 kts | 282° |
| 2026-04-22 19:43 | 13.37806 | 2.79725 | 11799 ft | 210 kts | 282° |
| 2026-04-22 19:43 | 13.38070 | 2.78248 | 11798 ft | 210 kts | 282° |
| 2026-04-22 19:44 | 13.38336 | 2.76773 | 11795 ft | 210 kts | 283° |
| 2026-04-22 19:44 | 13.38600 | 2.75300 | 11796 ft | 210 kts | 282° |
| 2026-04-22 19:44 | 13.38865 | 2.73824 | 11798 ft | 210 kts | 282° |
| 2026-04-22 19:44 | 13.39128 | 2.72348 | 11798 ft | 210 kts | 282° |
| 2026-04-22 19:45 | 13.39393 | 2.70866 | 11803 ft | 211 kts | 282° |
| 2026-04-22 19:45 | 13.39660 | 2.69386 | 11801 ft | 211 kts | 282° |
| 2026-04-22 19:45 | 13.39924 | 2.67907 | 11802 ft | 210 kts | 282° |
| 2026-04-22 19:45 | 13.40188 | 2.66429 | 11798 ft | 210 kts | 282° |
| 2026-04-22 19:46 | 13.40452 | 2.64955 | 11794 ft | 210 kts | 282° |
| 2026-04-22 19:46 | 13.40716 | 2.63479 | 11793 ft | 210 kts | 282° |
| 2026-04-22 19:46 | 13.40979 | 2.62006 | 11785 ft | 210 kts | 282° |
| 2026-04-22 19:46 | 13.41248 | 2.60506 | 11608 ft | 219 kts | 282° |
| 2026-04-22 19:47 | 13.41586 | 2.58963 | 11428 ft | 223 kts | 293° |
| 2026-04-22 19:47 | 13.42226 | 2.57512 | 11246 ft | 225 kts | 297° |
| 2026-04-22 19:47 | 13.42706 | 2.55995 | 11059 ft | 229 kts | 279° |
| 2026-04-22 19:47 | 13.42706 | 2.54350 | 10871 ft | 232 kts | 265° |
| 2026-04-22 19:48 | 13.42498 | 2.52703 | 10692 ft | 233 kts | 261° |
| 2026-04-22 19:48 | 13.42202 | 2.51058 | 10507 ft | 234 kts | 260° |
| 2026-04-22 19:48 | 13.41895 | 2.49413 | 10327 ft | 235 kts | 260° |
| 2026-04-22 19:48 | 13.41632 | 2.47758 | 10145 ft | 235 kts | 262° |
| 2026-04-22 19:49 | 13.41392 | 2.46097 | 9964 ft | 236 kts | 263° |
| 2026-04-22 19:49 | 13.41151 | 2.44431 | 9785 ft | 236 kts | 263° |
| 2026-04-22 19:49 | 13.40908 | 2.42760 | 9593 ft | 236 kts | 263° |
| 2026-04-22 19:49 | 13.40665 | 2.41089 | 9345 ft | 238 kts | 263° |
| 2026-04-22 19:50 | 13.40422 | 2.39424 | 9058 ft | 241 kts | 262° |
| 2026-04-22 19:50 | 13.40172 | 2.37716 | 8765 ft | 241 kts | 263° |
| 2026-04-22 19:50 | 13.39955 | 2.36012 | 8475 ft | 240 kts | 264° |
| 2026-04-22 19:50 | 13.39756 | 2.34315 | 8191 ft | 239 kts | 264° |
| 2026-04-22 19:51 | 13.39565 | 2.32619 | 7896 ft | 238 kts | 265° |
| 2026-04-22 19:51 | 13.39379 | 2.30930 | 7606 ft | 238 kts | 265° |
| 2026-04-22 19:51 | 13.39208 | 2.29250 | 7334 ft | 236 kts | 266° |
| 2026-04-22 19:51 | 13.39090 | 2.27574 | 7060 ft | 233 kts | 268° |
| 2026-04-22 19:52 | 13.38977 | 2.25914 | 6818 ft | 232 kts | 267° |
| 2026-04-22 19:52 | 13.38870 | 2.24274 | 6632 ft | 228 kts | 268° |
| 2026-04-22 19:52 | 13.38765 | 2.22663 | 6450 ft | 225 kts | 268° |
| 2026-04-22 19:52 | 13.38659 | 2.21066 | 6267 ft | 224 kts | 267° |
| 2026-04-22 19:53 | 13.38558 | 2.19476 | 6073 ft | 223 kts | 268° |
| 2026-04-22 19:53 | 13.38453 | 2.17887 | 5884 ft | 222 kts | 268° |
| 2026-04-22 19:53 | 13.38349 | 2.16314 | 5605 ft | 224 kts | 267° |
| 2026-04-22 19:53 | 13.38245 | 2.14696 | 5321 ft | 224 kts | 268° |
| 2026-04-22 19:54 | 13.38149 | 2.13116 | 5042 ft | 225 kts | 267° |
| 2026-04-22 19:54 | 13.38057 | 2.11511 | 4762 ft | 226 kts | 268° |
| 2026-04-22 19:54 | 13.37958 | 2.09901 | 4477 ft | 225 kts | 268° |
| 2026-04-22 19:54 | 13.37863 | 2.08296 | 4196 ft | 226 kts | 268° |
| 2026-04-22 19:55 | 13.37810 | 2.06688 | 3906 ft | 224 kts | 279° |
| 2026-04-22 19:55 | 13.38374 | 2.05222 | 3575 ft | 221 kts | 307° |
| 2026-04-22 19:55 | 13.39304 | 2.03973 | 3227 ft | 219 kts | 313° |
| 2026-04-22 19:55 | 13.40277 | 2.02782 | 2878 ft | 217 kts | 314° |
| 2026-04-22 19:56 | 13.41401 | 2.01780 | 2549 ft | 214 kts | 329° |
| 2026-04-22 19:56 | 13.42607 | 2.00956 | 2497 ft | 201 kts | 331° |
| 2026-04-22 19:56 | 13.43760 | 2.00192 | 2330 ft | 198 kts | 330° |
| 2026-04-22 19:56 | 13.44546 | 1.99657 | 2095 ft | 203 kts | 331° |
| 2026-04-22 19:57 | 13.46136 | 1.98679 | 1964 ft | 191 kts | 345° |
| 2026-04-22 19:57 | 13.47379 | 1.98348 | 2075 ft | 180 kts | 352° |
| 2026-04-22 19:57 | 13.48532 | 1.98356 | 2226 ft | 161 kts | 32° |
| 2026-04-22 19:57 | 13.48918 | 1.99359 | 2075 ft | 170 kts | 101° |
| 2026-04-22 19:58 | 13.48199 | 2.00382 | 1937 ft | 179 kts | 128° |
| 2026-04-22 19:58 | 13.47791 | 2.01506 | 2092 ft | 167 kts | 89° |
| 2026-04-22 19:58 | 13.47891 | 2.02705 | 2015 ft | 171 kts | 84° |
| 2026-04-22 19:58 | 13.47965 | 2.03925 | 1894 ft | 174 kts | 85° |
| 2026-04-22 19:59 | 13.48047 | 2.05149 | 1933 ft | 169 kts | 83° |
| 2026-04-22 20:00 | 13.48351 | 2.11211 | 1782 ft | 126 kts | 96° |
| 2026-04-22 20:00 | 13.48263 | 2.12094 | 1771 ft | 125 kts | 92° |
| 2026-04-22 20:01 | 13.48250 | 2.12984 | 1710 ft | 122 kts | 85° |
| 2026-04-22 20:01 | 13.48314 | 2.13814 | 1622 ft | 111 kts | 86° |
| 2026-04-22 20:01 | 13.48362 | 2.14574 | 1469 ft | 109 kts | 85° |
| 2026-04-22 20:01 | 13.48403 | 2.15344 | 1228 ft | 108 kts | 86° |
| 2026-04-22 20:02 | 13.48416 | 2.16086 | 1009 ft | 101 kts | 85° |
| 2026-04-22 20:02 | 13.48461 | 2.16795 | 843 ft | 100 kts | 86° |
| 2026-04-22 20:02 | 13.48497 | 2.17488 | 733 ft | 87 kts | 85° |
| 2026-04-22 20:02 | 13.48504 | 2.17636 | 726 ft | 22 kts | 89° |
| 2026-04-22 20:03 | 13.48514 | 2.17848 | 727 ft | 13 kts | 81° |
| 2026-04-22 20:03 | 13.48517 | 2.17909 | 727 ft | 12 kts | 87° |
| 2026-04-22 20:03 | 13.48448 | 2.17973 | 728 ft | 19 kts | 178° |
| 2026-04-22 20:03 | 13.48328 | 2.17979 | 725 ft | 4 kts | 172° |
| 2026-04-22 20:04 | 13.48313 | 2.17981 | 725 ft | 8 kts | 171° |
| 2026-04-22 20:04 | 13.48306 | 2.17982 | 725 ft | 0 kts | 168° |
| 2026-04-22 20:05 | 13.48269 | 2.17981 | 724 ft | 12 kts | 191° |
| 2026-04-22 20:06 | 13.48215 | 2.17915 | 724 ft | 21 kts | 256° |
| 2026-04-22 20:06 | 13.48194 | 2.17701 | 725 ft | 30 kts | 242° |
| 2026-04-22 20:06 | 13.48043 | 2.17647 | 726 ft | 20 kts | 186° |
| 2026-04-22 20:06 | 13.47946 | 2.17648 | 727 ft | 8 kts | 180° |
| 2026-04-22 20:07 | 13.47901 | 2.17649 | 727 ft | 5 kts | 165° |
| 2026-04-22 20:07 | 13.47880 | 2.17667 | 727 ft | 4 kts | 109° |
| 2026-04-22 20:07 | 13.47877 | 2.17698 | 726 ft | 3 kts | 90° |
| 2026-04-22 20:07 | 13.47877 | 2.17716 | 726 ft | 4 kts | 88° |
| 2026-04-22 20:08 | 13.47878 | 2.17737 | 726 ft | 1 kts | 88° |
| 2026-04-22 20:08 | 13.47878 | 2.17738 | 726 ft | 0 kts | 88° |
| 2026-04-22 20:08 | 13.47879 | 2.17760 | 726 ft | 3 kts | 83° |
| 2026-04-22 20:09 | 13.47880 | 2.17766 | 726 ft | 3 kts | 83° |
| 2026-04-22 20:09 | 13.47881 | 2.17775 | 726 ft | 0 kts | 79° |
| 2026-04-22 20:09 | 13.47874 | 2.17785 | 726 ft | 1 kts | 182° |
| 2026-04-22 20:09 | 13.47841 | 2.17779 | 726 ft | 8 kts | 170° |
| 2026-04-22 20:10 | 13.47800 | 2.17782 | 726 ft | 2 kts | 184° |
| 2026-04-22 20:10 | 13.47793 | 2.17782 | 726 ft | 1 kts | 176° |
| 2026-04-22 20:10 | 13.47786 | 2.17782 | 726 ft | 0 kts | 176° |